Time;durP1;ratioP1;P1;durP2;ratioP2;P2;SDS_P1;SDS_P2;PMS_P1;PMS_P2;Temp;Humidity;BMP_temperature;BMP_pressure;BME280_temperature;BME280_humidity;BME280_pressure;Samples;Min_cycle;Max_cycle;Signal;HPM_P1;HPM_P2
2021/03/24 00:00:20;;;;;;;5.50;3.53;;;5.20;73.20;;;;;;5073596;28;20020;-70
2021/03/24 00:02:46;;;;;;;7.28;4.13;;;5.20;73.30;;;;;;5072961;28;20535;-70
2021/03/24 00:05:15;;;;;;;5.72;3.35;;;5.10;73.30;;;;;;5073294;28;20028;-70
2021/03/24 00:07:41;;;;;;;4.50;3.05;;;5.10;73.30;;;;;;5073029;28;20493;-70
2021/03/24 00:10:13;;;;;;;5.47;3.58;;;5.10;73.30;;;;;;5073491;28;20026;-70
2021/03/24 00:12:39;;;;;;;5.72;4.28;;;5.10;73.50;;;;;;5073109;28;20024;-70
2021/03/24 00:15:08;;;;;;;6.38;3.67;;;5.00;73.50;;;;;;5071399;28;20551;-70
2021/03/24 00:17:33;;;;;;;4.60;2.90;;;5.00;73.50;;;;;;5072939;28;20028;-70
2021/03/24 00:19:59;;;;;;;7.13;4.50;;;5.00;73.60;;;;;;5072902;28;20028;-70
2021/03/24 00:22:25;;;;;;;5.90;3.83;;;5.00;73.60;;;;;;5072828;28;20024;-70
2021/03/24 00:24:50;;;;;;;6.05;3.63;;;5.10;73.70;;;;;;5072913;28;20462;-70
2021/03/24 00:27:16;;;;;;;5.78;3.13;;;5.10;73.50;;;;;;5071590;28;20024;-70
2021/03/24 00:29:42;;;;;;;5.20;2.85;;;5.10;73.60;;;;;;5072885;28;20031;-70
2021/03/24 00:32:08;;;;;;;5.57;4.32;;;5.10;73.50;;;;;;5072832;28;20029;-70
2021/03/24 00:34:34;;;;;;;5.20;2.72;;;5.10;73.50;;;;;;5072787;28;20137;-70
2021/03/24 00:36:59;;;;;;;5.75;3.30;;;5.10;73.50;;;;;;5071462;28;20035;-70
2021/03/24 00:39:24;;;;;;;4.63;2.85;;;5.10;73.60;;;;;;5072742;28;20020;-70
2021/03/24 00:41:50;;;;;;;6.18;3.75;;;5.10;73.70;;;;;;5072830;28;20025;-70
2021/03/24 00:44:16;;;;;;;6.57;3.50;;;5.10;73.70;;;;;;5072664;28;20465;-70
2021/03/24 00:46:41;;;;;;;5.10;3.63;;;5.10;73.70;;;;;;5073183;28;20038;-70
2021/03/24 00:49:07;;;;;;;5.90;4.10;;;5.10;73.70;;;;;;5072671;28;20029;-70
2021/03/24 00:51:32;;;;;;;4.97;2.78;;;5.10;73.80;;;;;;5072630;28;20032;-69
2021/03/24 00:53:58;;;;;;;6.68;3.70;;;5.00;73.80;;;;;;5072707;28;20025;-69
2021/03/24 00:56:24;;;;;;;5.95;3.90;;;5.00;73.90;;;;;;5071253;28;20062;-70
2021/03/24 00:58:49;;;;;;;5.30;2.88;;;5.00;74.00;;;;;;5073118;28;20027;-70
2021/03/24 01:01:15;;;;;;;5.68;2.97;;;5.00;74.00;;;;;;5072547;28;20028;-70
2021/03/24 01:03:40;;;;;;;5.50;2.97;;;5.00;74.00;;;;;;5072467;28;20430;-70
2021/03/24 01:06:06;;;;;;;5.15;3.03;;;5.00;74.10;;;;;;5072610;28;20027;-70
2021/03/24 01:08:31;;;;;;;6.32;2.83;;;5.00;74.10;;;;;;5072463;28;20017;-69
2021/03/24 01:11:00;;;;;;;5.38;3.45;;;5.00;74.10;;;;;;5072539;28;20377;-70
2021/03/24 01:13:25;;;;;;;5.28;3.65;;;5.00;74.20;;;;;;5072509;28;20021;-70
2021/03/24 01:15:52;;;;;;;5.10;3.00;;;5.00;74.10;;;;;;5072075;28;20052;-70
2021/03/24 01:18:18;;;;;;;4.43;3.13;;;4.90;74.10;;;;;;5072433;28;20016;-70
2021/03/24 01:20:45;;;;;;;5.90;2.85;;;4.90;74.30;;;;;;5072428;28;20528;-70
2021/03/24 01:23:11;;;;;;;4.97;3.92;;;4.90;74.30;;;;;;5073748;28;20034;-70
2021/03/24 01:25:37;;;;;;;4.97;3.13;;;4.80;74.30;;;;;;5074583;28;20063;-70
2021/03/24 01:28:06;;;;;;;6.22;3.72;;;4.80;74.40;;;;;;5074747;28;20139;-70
2021/03/24 01:30:32;;;;;;;3.97;2.80;;;4.80;74.50;;;;;;5076389;28;20104;-70
2021/03/24 01:32:58;;;;;;;4.85;3.53;;;4.70;74.60;;;;;;5075861;28;20039;-70
2021/03/24 01:35:24;;;;;;;4.38;2.58;;;4.70;74.60;;;;;;5074476;28;20029;-70
2021/03/24 01:37:50;;;;;;;5.53;2.80;;;4.70;74.70;;;;;;5074494;28;20108;-70
2021/03/24 01:40:28;;;;;;;4.13;2.85;;;4.70;74.60;;;;;;5075682;28;20087;-70
2021/03/24 01:43:00;;;;;;;6.18;3.75;;;4.70;74.70;;;;;;5075713;28;20036;-70
2021/03/24 01:45:25;;;;;;;6.47;3.88;;;4.70;74.70;;;;;;5075559;28;20028;-70
2021/03/24 01:47:51;;;;;;;5.82;3.20;;;4.60;74.60;;;;;;5075511;28;20020;-70
2021/03/24 01:50:22;;;;;;;6.00;3.40;;;4.60;74.70;;;;;;5074493;28;20035;-70
2021/03/24 01:52:48;;;;;;;6.00;3.53;;;4.60;74.70;;;;;;5075591;28;20027;-70
2021/03/24 01:55:14;;;;;;;5.57;3.38;;;4.50;74.70;;;;;;5075361;28;20059;-70
2021/03/24 01:57:45;;;;;;;6.55;3.85;;;4.50;74.80;;;;;;5075322;28;20469;-70
2021/03/24 02:00:34;;;;;;;5.60;3.42;;;4.50;74.90;;;;;;5074606;28;20437;-70
2021/03/24 02:02:59;;;;;;;4.07;2.65;;;4.50;74.90;;;;;;5075364;28;20020;-70
2021/03/24 02:05:25;;;;;;;5.32;2.88;;;4.50;74.80;;;;;;5075247;28;20538;-70
2021/03/24 02:07:58;;;;;;;5.72;3.83;;;4.50;74.80;;;;;;5075161;28;20029;-70
2021/03/24 02:10:33;;;;;;;4.88;2.97;;;4.50;74.90;;;;;;5075173;28;20025;-71
2021/03/24 02:13:05;;;;;;;4.97;3.22;;;4.50;74.90;;;;;;5075723;28;20024;-70
2021/03/24 02:15:36;;;;;;;5.55;3.03;;;4.50;75.10;;;;;;5075166;28;20404;-70
2021/03/24 02:18:03;;;;;;;5.88;3.40;;;4.40;75.00;;;;;;5075094;28;20032;-70
2021/03/24 02:20:38;;;;;;;5.82;3.72;;;4.40;75.10;;;;;;5074885;28;20400;-70
2021/03/24 02:23:35;;;;;;;5.15;2.80;;;4.40;75.10;;;;;;5075383;28;20024;-70
2021/03/24 02:26:41;;;;;;;6.25;3.20;;;4.50;75.00;;;;;;5074008;28;20040;-70
2021/03/24 02:29:11;;;;;;;6.05;3.42;;;4.50;74.90;;;;;;5074740;28;20092;-70
2021/03/24 02:31:39;;;;;;;3.90;2.58;;;4.40;75.00;;;;;;5073382;28;20024;-70
2021/03/24 02:34:08;;;;;;;5.88;3.38;;;4.40;75.00;;;;;;5075125;28;20078;-70
2021/03/24 02:36:35;;;;;;;4.45;2.47;;;4.40;75.70;;;;;;5074507;28;20380;-70
2021/03/24 02:39:06;;;;;;;5.43;3.53;;;4.40;75.10;;;;;;5074448;28;20046;-70
2021/03/24 02:41:32;;;;;;;5.57;3.80;;;4.40;75.10;;;;;;5074665;28;20032;-70
2021/03/24 02:43:59;;;;;;;5.15;3.42;;;4.30;75.80;;;;;;5074443;28;20021;-70
2021/03/24 02:46:26;;;;;;;6.15;3.35;;;4.30;75.20;;;;;;5074968;28;20052;-70
2021/03/24 02:48:52;;;;;;;3.60;2.72;;;4.30;75.30;;;;;;5074433;28;20021;-71
2021/03/24 02:51:21;;;;;;;4.18;2.65;;;4.30;75.30;;;;;;5074362;28;20082;-70
2021/03/24 02:53:48;;;;;;;3.80;2.57;;;4.30;75.40;;;;;;5074844;28;20078;-70
2021/03/24 02:56:13;;;;;;;4.50;3.28;;;4.30;75.40;;;;;;5074125;28;20765;-70
2021/03/24 02:58:39;;;;;;;4.80;2.53;;;4.30;75.50;;;;;;5074208;28;20029;-70
2021/03/24 03:01:16;;;;;;;5.63;2.80;;;4.30;75.40;;;;;;5074124;28;20020;-70
2021/03/24 03:04:06;;;;;;;5.57;2.80;;;4.40;75.50;;;;;;5074115;28;20108;-70
2021/03/24 03:06:31;;;;;;;5.38;3.38;;;4.40;75.40;;;;;;5074341;28;20031;-70
2021/03/24 03:09:09;;;;;;;6.45;2.97;;;4.40;75.40;;;;;;5074001;28;20104;-70
2021/03/24 03:12:05;;;;;;;4.95;2.97;;;4.40;75.50;;;;;;5072673;28;20078;-70
2021/03/24 03:14:53;;;;;;;3.80;2.58;;;4.40;75.50;;;;;;5072913;28;20039;-71
2021/03/24 03:17:41;;;;;;;3.97;2.63;;;4.40;75.50;;;;;;5074404;28;20055;-70
2021/03/24 03:20:21;;;;;;;5.38;3.50;;;4.40;75.60;;;;;;5073796;28;20055;-70
2021/03/24 03:22:56;;;;;;;4.53;2.92;;;4.30;75.50;;;;;;5073776;28;20389;-70
2021/03/24 03:25:30;;;;;;;3.95;2.70;;;4.30;75.60;;;;;;5073657;28;20024;-70
2021/03/24 03:27:59;;;;;;;4.88;3.17;;;4.30;75.60;;;;;;5074252;28;20017;-70
2021/03/24 03:30:28;;;;;;;6.07;3.17;;;4.30;75.60;;;;;;5074056;28;20020;-70
2021/03/24 03:32:57;;;;;;;5.43;3.33;;;4.40;75.60;;;;;;5072198;28;20029;-70
2021/03/24 03:35:24;;;;;;;4.25;3.15;;;4.40;75.60;;;;;;5073383;28;20401;-70
2021/03/24 03:37:55;;;;;;;4.53;3.35;;;4.50;75.50;;;;;;5072274;28;20023;-70
2021/03/24 03:40:25;;;;;;;4.88;3.15;;;4.60;75.50;;;;;;5073390;28;20027;-70
2021/03/24 03:42:52;;;;;;;4.30;2.60;;;4.60;75.50;;;;;;5073417;28;20040;-70
2021/03/24 03:45:20;;;;;;;6.13;4.00;;;4.60;76.00;;;;;;5072893;28;20036;-70
2021/03/24 03:47:45;;;;;;;6.20;3.58;;;4.70;75.40;;;;;;5073848;28;20501;-70
2021/03/24 03:50:17;;;;;;;6.32;3.78;;;4.70;75.50;;;;;;5073794;28;20029;-70
2021/03/24 03:53:02;;;;;;;5.32;3.67;;;4.70;75.60;;;;;;5073712;28;20032;-71
2021/03/24 03:55:45;;;;;;;5.97;3.90;;;4.70;75.70;;;;;;5073718;28;20551;-71
2021/03/24 03:58:32;;;;;;;4.55;2.55;;;4.70;76.30;;;;;;5073186;28;20089;-70
2021/03/24 04:01:22;;;;;;;6.50;3.60;;;4.70;75.80;;;;;;5073707;28;20047;-70
2021/03/24 04:04:01;;;;;;;4.40;3.03;;;4.70;75.80;;;;;;5073736;28;20417;-70
2021/03/24 04:06:41;;;;;;;4.75;2.85;;;4.70;75.90;;;;;;5073181;28;20050;-71
2021/03/24 04:09:10;;;;;;;5.72;3.95;;;4.60;75.80;;;;;;5073572;28;20376;-71
2021/03/24 04:11:43;;;;;;;3.97;3.00;;;4.60;75.80;;;;;;5073098;28;20012;-71
2021/03/24 04:14:14;;;;;;;3.95;2.55;;;4.60;75.90;;;;;;5073118;28;20030;-71
2021/03/24 04:16:39;;;;;;;5.05;3.50;;;4.60;75.90;;;;;;5072956;28;20049;-71
2021/03/24 04:19:07;;;;;;;4.63;2.83;;;4.60;75.90;;;;;;5073046;28;20017;-71
2021/03/24 04:21:39;;;;;;;5.25;3.58;;;4.50;76.00;;;;;;5073195;28;20074;-71
2021/03/24 04:24:09;;;;;;;4.30;2.85;;;4.50;76.10;;;;;;5072929;28;20056;-71
2021/03/24 04:26:38;;;;;;;3.70;2.45;;;4.50;76.10;;;;;;5072923;28;20017;-71
2021/03/24 04:29:09;;;;;;;4.40;3.10;;;4.50;76.10;;;;;;5072913;28;20017;-71
2021/03/24 04:31:40;;;;;;;4.47;2.88;;;4.50;76.00;;;;;;5073602;28;20025;-71
2021/03/24 04:34:06;;;;;;;6.32;3.38;;;4.50;76.00;;;;;;5073193;28;20035;-71
2021/03/24 04:36:36;;;;;;;5.47;3.25;;;4.50;75.90;;;;;;5073314;28;20039;-71
2021/03/24 04:39:22;;;;;;;4.25;3.42;;;4.40;76.00;;;;;;5073548;28;20024;-71
2021/03/24 04:41:49;;;;;;;4.07;2.67;;;4.40;76.10;;;;;;5072796;28;20028;-71
2021/03/24 04:44:27;;;;;;;5.15;2.63;;;4.40;76.10;;;;;;5073280;28;20025;-71
2021/03/24 04:46:58;;;;;;;5.75;3.80;;;4.40;76.10;;;;;;5072066;28;20112;-71
2021/03/24 04:49:25;;;;;;;4.75;2.72;;;4.30;76.00;;;;;;5071448;28;20032;-71
2021/03/24 04:51:53;;;;;;;6.95;4.13;;;4.40;76.10;;;;;;5071380;28;20527;-71
2021/03/24 04:54:23;;;;;;;4.78;3.40;;;4.30;76.10;;;;;;5072663;28;20457;-71
2021/03/24 04:56:55;;;;;;;6.13;3.72;;;4.30;76.10;;;;;;5073179;28;20127;-71
2021/03/24 04:59:27;;;;;;;4.00;2.83;;;4.30;76.20;;;;;;5075969;28;20028;-71
2021/03/24 05:01:57;;;;;;;4.72;2.85;;;4.40;76.30;;;;;;5076484;28;20017;-71
2021/03/24 05:04:46;;;;;;;4.40;3.38;;;4.30;76.20;;;;;;5076391;28;20016;-71
2021/03/24 05:07:31;;;;;;;4.00;3.03;;;4.40;76.40;;;;;;5074955;28;20032;-71
2021/03/24 05:09:57;;;;;;;5.18;3.22;;;4.40;77.00;;;;;;5075028;28;20107;-71
2021/03/24 05:12:29;;;;;;;6.85;3.85;;;4.40;76.30;;;;;;5074942;28;20433;-71
2021/03/24 05:15:05;;;;;;;5.05;3.38;;;4.40;76.30;;;;;;5076547;28;20027;-71
2021/03/24 05:17:35;;;;;;;5.32;3.25;;;4.40;76.40;;;;;;5076102;28;20436;-71
2021/03/24 05:20:14;;;;;;;7.63;4.22;;;4.40;76.30;;;;;;5075987;28;20100;-71
2021/03/24 05:22:46;;;;;;;6.88;4.45;;;4.40;76.40;;;;;;5076578;28;20032;-71
2021/03/24 05:25:20;;;;;;;5.15;3.17;;;4.40;76.40;;;;;;5076054;28;20039;-71
2021/03/24 05:28:05;;;;;;;5.30;3.05;;;4.50;76.40;;;;;;5076131;28;20035;-71
2021/03/24 05:30:35;;;;;;;3.75;2.75;;;4.50;76.30;;;;;;5076442;28;20036;-71
2021/03/24 05:33:22;;;;;;;6.60;3.65;;;4.50;76.20;;;;;;5075806;28;20429;-71
2021/03/24 05:35:56;;;;;;;6.13;3.53;;;4.50;76.20;;;;;;5075615;28;20028;-71
2021/03/24 05:38:41;;;;;;;6.90;3.22;;;4.60;76.10;;;;;;5075651;28;20485;-71
2021/03/24 05:41:44;;;;;;;5.25;3.53;;;4.60;76.10;;;;;;5076224;28;20025;-71
2021/03/24 05:44:47;;;;;;;4.57;3.20;;;4.60;76.00;;;;;;5075604;28;20393;-71
2021/03/24 05:47:49;;;;;;;5.88;3.63;;;4.50;75.90;;;;;;5033550;28;20050;-71
2021/03/24 05:50:49;;;;;;;4.72;2.58;;;4.50;76.10;;;;;;5033972;28;20071;-71
2021/03/24 05:53:37;;;;;;;3.85;2.67;;;4.50;76.10;;;;;;4974663;28;20384;-71
2021/03/24 05:56:11;;;;;;;4.85;3.00;;;4.50;76.10;;;;;;4974479;28;20566;-72
2021/03/24 05:59:05;;;;;;;5.68;3.53;;;4.50;76.10;;;;;;4974736;28;20058;-71
2021/03/24 06:02:02;;;;;;;3.30;2.58;;;4.50;76.10;;;;;;4974392;28;20149;-71
2021/03/24 06:04:42;;;;;;;3.42;2.42;;;4.50;76.20;;;;;;4975012;28;20049;-71
2021/03/24 06:07:35;;;;;;;5.18;4.07;;;4.50;76.10;;;;;;4974328;28;20040;-71
2021/03/24 06:10:31;;;;;;;4.95;3.85;;;4.50;76.10;;;;;;4974052;28;20031;-71
2021/03/24 06:13:14;;;;;;;2.83;2.35;;;4.50;76.10;;;;;;4974815;28;20461;-71
2021/03/24 06:15:42;;;;;;;3.90;2.80;;;4.50;76.10;;;;;;4973883;28;20125;-71
2021/03/24 06:18:43;;;;;;;5.68;3.78;;;4.50;76.10;;;;;;4974913;28;20073;-71
2021/03/24 06:21:18;;;;;;;4.65;2.72;;;4.50;76.10;;;;;;4974143;28;20031;-71
2021/03/24 06:24:07;;;;;;;4.25;2.92;;;4.50;76.10;;;;;;5009690;28;20038;-71
2021/03/24 06:26:58;;;;;;;7.50;3.58;;;4.50;76.20;;;;;;5032790;28;20033;-71
2021/03/24 06:29:49;;;;;;;4.35;3.17;;;4.50;76.10;;;;;;5063425;28;20040;-70
2021/03/24 06:32:52;;;;;;;4.90;3.10;;;4.50;76.10;;;;;;5074668;28;20461;-71
2021/03/24 06:35:53;;;;;;;3.60;2.55;;;4.50;76.00;;;;;;5074969;28;20454;-71
2021/03/24 06:38:49;;;;;;;4.55;2.67;;;4.50;76.00;;;;;;5074561;28;20029;-72
2021/03/24 06:41:36;;;;;;;4.82;2.58;;;4.60;75.90;;;;;;5075055;28;20020;-71
2021/03/24 06:44:26;;;;;;;4.28;3.00;;;4.60;75.80;;;;;;5073196;28;20463;-71
2021/03/24 06:47:02;;;;;;;;;;;4.70;75.90;;;;;;5075390;28;20094;-70
2021/03/24 06:49:54;;;;;;;4.97;2.92;;;4.70;75.50;;;;;;5074334;28;20308;-71
2021/03/24 06:52:41;;;;;;;4.75;3.45;;;4.80;75.70;;;;;;5074881;28;20439;-70
2021/03/24 06:55:44;;;;;;;4.07;2.70;;;4.80;75.60;;;;;;5074249;28;20052;-71
2021/03/24 06:58:39;;;;;;;5.38;3.65;;;4.90;75.70;;;;;;5074239;28;20032;-70
2021/03/24 07:01:42;;;;;;;5.28;3.22;;;4.90;75.70;;;;;;5074168;28;20116;-71
2021/03/24 07:04:46;;;;;;;4.97;3.63;;;5.00;75.70;;;;;;5074327;28;20040;-71
2021/03/24 07:07:20;;;;;;;5.03;3.08;;;5.00;75.70;;;;;;5074037;28;20099;-70
2021/03/24 07:09:55;;;;;;;4.95;3.17;;;5.10;75.70;;;;;;5073965;28;20112;-70
2021/03/24 07:12:57;;;;;;;4.35;3.33;;;5.20;75.80;;;;;;5074558;28;20513;-70
2021/03/24 07:15:38;;;;;;;5.63;3.63;;;5.20;75.90;;;;;;5073693;28;20048;-70
2021/03/24 07:18:22;;;;;;;5.90;4.28;;;5.30;75.90;;;;;;5072400;28;20397;-71
2021/03/24 07:21:39;;;;;;;6.95;4.10;;;5.30;75.90;;;;;;5073468;28;20032;-71
2021/03/24 07:24:30;;;;;;;7.30;5.05;;;5.40;75.90;;;;;;5032270;28;20189;-71
2021/03/24 07:27:23;;;;;;;6.75;4.75;;;5.40;75.90;;;;;;5032216;28;20109;-71
2021/03/24 07:29:57;;;;;;;7.25;4.90;;;5.50;76.00;;;;;;5032159;28;20083;-69
2021/03/24 07:32:54;;;;;;;7.75;5.32;;;5.50;76.00;;;;;;5031476;28;20429;-69
2021/03/24 07:35:29;;;;;;;8.75;6.00;;;5.60;75.90;;;;;;5015037;28;20022;-69
2021/03/24 07:37:55;;;;;;;8.85;4.90;;;5.70;76.10;;;;;;5031359;28;20112;-69
2021/03/24 07:40:47;;;;;;;9.85;6.47;;;5.70;76.00;;;;;;5031954;28;20029;-69
2021/03/24 07:43:37;;;;;;;8.10;5.13;;;5.70;76.10;;;;;;5031393;28;20037;-69
2021/03/24 07:46:09;;;;;;;6.38;4.50;;;5.80;76.10;;;;;;5030562;28;20030;-70
2021/03/24 07:49:07;;;;;;;7.10;4.75;;;5.80;76.10;;;;;;5031681;28;20029;-70
2021/03/24 07:52:00;;;;;;;6.87;4.30;;;5.90;76.20;;;;;;5031802;28;20064;-69
2021/03/24 07:54:39;;;;;;;6.68;4.90;;;6.00;76.10;;;;;;5031408;28;20276;-71
2021/03/24 07:57:17;;;;;;;6.85;3.97;;;6.10;76.10;;;;;;5031155;28;20206;-70
2021/03/24 08:00:02;;;;;;;6.57;4.10;;;6.10;76.00;;;;;;5036935;28;20099;-70
2021/03/24 08:02:56;;;;;;;6.10;4.20;;;6.20;76.00;;;;;;5071787;28;20496;-70
2021/03/24 08:05:27;;;;;;;5.55;3.92;;;6.30;75.90;;;;;;5073065;28;20115;-70
2021/03/24 08:08:13;;;;;;;7.15;4.72;;;6.40;75.80;;;;;;5073468;28;20090;-70
2021/03/24 08:11:09;;;;;;;8.15;4.90;;;6.50;75.70;;;;;;5072705;28;20024;-70
2021/03/24 08:14:02;;;;;;;11.55;7.07;;;6.60;75.60;;;;;;5073593;28;20034;-70
2021/03/24 08:17:08;;;;;;;9.20;5.47;;;6.70;75.60;;;;;;5072568;28;20049;-70
2021/03/24 08:20:08;;;;;;;10.95;7.25;;;6.80;75.40;;;;;;5073543;28;20453;-70
2021/03/24 08:22:44;;;;;;;11.00;6.70;;;6.90;75.50;;;;;;5073498;28;20020;-70
2021/03/24 08:25:36;;;;;;;8.13;6.47;;;7.00;75.50;;;;;;5072907;28;20027;-70
2021/03/24 08:28:19;;;;;;;8.98;5.43;;;7.10;75.40;;;;;;5073367;28;20024;-70
2021/03/24 08:31:00;;;;;;;9.45;5.70;;;7.20;75.40;;;;;;5072895;28;20032;-70
2021/03/24 08:33:32;;;;;;;7.78;5.05;;;7.30;75.30;;;;;;5075267;28;20473;-71
2021/03/24 08:36:36;;;;;;;9.98;6.35;;;7.50;75.20;;;;;;5076857;28;20159;-70
2021/03/24 08:39:13;;;;;;;9.07;6.03;;;7.60;75.20;;;;;;5018252;28;20029;-70
2021/03/24 08:42:04;;;;;;;8.35;5.82;;;7.70;75.10;;;;;;5018276;28;20036;-70
2021/03/24 08:44:54;;;;;;;10.27;7.75;;;7.90;75.00;;;;;;5034826;28;20108;-70
2021/03/24 08:47:24;;;;;;;10.98;7.57;;;7.90;74.90;;;;;;5034610;28;20033;-70
2021/03/24 08:49:54;;;;;;;8.95;5.82;;;8.00;74.90;;;;;;5018028;28;20510;-69
2021/03/24 08:52:47;;;;;;;13.02;8.07;;;8.10;74.90;;;;;;5017991;28;20443;-71
2021/03/24 08:55:39;;;;;;;8.88;6.55;;;8.20;74.90;;;;;;5017862;28;20077;-70
2021/03/24 08:58:27;;;;;;;14.25;9.32;;;8.30;74.80;;;;;;5034652;28;20073;-70
2021/03/24 09:01:19;;;;;;;13.63;9.98;;;8.40;74.70;;;;;;5034921;28;20040;-70
2021/03/24 09:04:04;;;;;;;10.75;8.38;;;8.50;74.60;;;;;;5034491;28;20513;-69
2021/03/24 09:06:53;;;;;;;17.70;11.30;;;8.50;74.80;;;;;;5034408;28;20510;-70
2021/03/24 09:09:56;;;;;;;17.73;10.98;;;8.70;74.60;;;;;;5047021;28;20441;-70
2021/03/24 09:12:28;;;;;;;17.63;12.23;;;8.80;74.40;;;;;;5076241;28;20115;-70
2021/03/24 09:15:08;;;;;;;13.98;9.98;;;8.80;74.40;;;;;;5076194;28;20028;-71
2021/03/24 09:18:07;;;;;;;12.70;8.57;;;8.90;74.40;;;;;;5076077;28;20056;-70
2021/03/24 09:20:39;;;;;;;;;;;9.00;74.30;;;;;;5076443;28;20564;-69
2021/03/24 09:23:38;;;;;;;9.13;6.93;;;9.00;74.20;;;;;;5074723;28;19908;-70
2021/03/24 09:26:36;;;;;;;8.98;6.60;;;9.20;74.10;;;;;;5076242;28;20110;-70
2021/03/24 09:29:11;;;;;;;18.20;10.82;;;9.30;74.00;;;;;;5076405;28;20060;-70
2021/03/24 09:31:52;;;;;;;16.80;10.85;;;9.40;74.50;;;;;;5075894;28;20024;-71
2021/03/24 09:34:52;;;;;;;11.23;8.48;;;9.40;73.90;;;;;;5075346;28;20415;-70
2021/03/24 09:37:24;;;;;;;13.52;9.15;;;9.60;73.80;;;;;;5075717;28;20040;-70
2021/03/24 09:39:53;;;;;;;9.77;7.47;;;9.70;73.80;;;;;;5075762;28;20074;-70
2021/03/24 09:42:24;;;;;;;;;;;9.80;73.70;;;;;;5074722;28;20024;-70
2021/03/24 09:44:57;;;;;;;9.20;7.00;;;9.80;73.50;;;;;;5073641;28;19912;-71
2021/03/24 09:47:47;;;;;;;13.80;9.73;;;10.00;73.30;;;;;;5076120;28;20408;-70
2021/03/24 09:50:19;;;;;;;12.68;8.93;;;10.10;73.20;;;;;;5074197;28;20477;-70
2021/03/24 09:53:01;;;;;;;12.82;8.90;;;10.20;73.10;;;;;;5075458;28;20385;-70
2021/03/24 09:55:28;;;;;;;13.05;9.23;;;10.30;73.10;;;;;;5074688;28;20082;-70
2021/03/24 09:58:20;;;;;;;13.32;8.93;;;10.50;73.00;;;;;;5074045;28;20024;-70
2021/03/24 10:01:15;;;;;;;19.10;11.82;;;10.60;72.80;;;;;;5075309;28;20139;-70
2021/03/24 10:04:00;;;;;;;13.80;9.45;;;10.60;72.70;;;;;;5073910;28;20020;-70
2021/03/24 10:06:48;;;;;;;17.70;12.55;;;10.60;72.80;;;;;;5075251;28;20052;-71
2021/03/24 10:09:24;;;;;;;14.23;10.27;;;10.80;72.70;;;;;;5075219;28;20480;-70
2021/03/24 10:12:08;;;;;;;13.70;8.65;;;10.90;72.60;;;;;;5075423;28;20052;-70
2021/03/24 10:14:55;;;;;;;16.88;12.90;;;11.00;72.30;;;;;;5075142;28;20052;-70
2021/03/24 10:17:28;;;;;;;18.38;11.30;;;11.20;72.10;;;;;;5075506;28;20098;-70
2021/03/24 10:20:24;;;;;;;16.98;11.68;;;11.30;72.00;;;;;;5074966;28;20024;-71
2021/03/24 10:22:57;;;;;;;16.40;11.70;;;11.40;72.00;;;;;;5074851;28;20035;-70
2021/03/24 10:25:46;;;;;;;18.02;11.75;;;11.50;71.80;;;;;;5073627;28;20020;-71
2021/03/24 10:28:21;;;;;;;14.43;10.15;;;11.60;71.40;;;;;;5074916;28;20541;-70
2021/03/24 10:31:03;;;;;;;18.80;12.48;;;11.60;71.40;;;;;;5074795;28;20024;-71
2021/03/24 10:33:41;;;;;;;21.92;13.95;;;11.70;71.30;;;;;;5074801;28;20535;-72
2021/03/24 10:36:26;;;;;;;17.38;12.50;;;11.70;71.10;;;;;;5074505;28;20036;-71
2021/03/24 10:39:00;;;;;;;14.98;11.20;;;11.90;71.00;;;;;;5074603;28;20299;-71
2021/03/24 10:41:37;;;;;;;16.92;11.30;;;12.00;71.00;;;;;;5074563;28;20024;-71
2021/03/24 10:44:05;;;;;;;12.63;8.57;;;12.10;70.80;;;;;;5074526;28;20029;-71
2021/03/24 10:46:37;;;;;;;14.48;8.40;;;12.30;70.40;;;;;;5074425;28;20382;-71
2021/03/24 10:49:23;;;;;;;15.20;10.10;;;12.40;70.30;;;;;;5074411;28;20028;-71
2021/03/24 10:52:05;;;;;;;12.73;9.23;;;12.60;70.00;;;;;;5074900;28;20021;-71
2021/03/24 10:54:36;;;;;;;11.90;9.27;;;12.70;69.70;;;;;;5072686;28;20025;-71
2021/03/24 10:57:30;;;;;;;13.05;7.63;;;12.80;69.60;;;;;;5073268;28;20462;-71
2021/03/24 11:00:11;;;;;;;12.60;8.32;;;12.80;69.60;;;;;;5074021;28;20029;-72
2021/03/24 11:03:20;;;;;;;14.63;10.88;;;12.70;69.60;;;;;;5074070;28;20021;-71
2021/03/24 11:05:59;;;;;;;16.42;10.93;;;12.80;69.40;;;;;;5032143;28;20086;-71
2021/03/24 11:08:39;;;;;;;13.63;9.40;;;12.80;69.20;;;;;;5032652;28;20045;-71
2021/03/24 11:11:14;;;;;;;12.68;8.93;;;12.90;68.90;;;;;;5032538;28;20068;-71
2021/03/24 11:13:47;;;;;;;14.15;10.23;;;13.00;68.80;;;;;;5031956;28;20146;-71
2021/03/24 11:16:26;;;;;;;13.43;8.52;;;13.10;68.60;;;;;;5031703;28;20054;-71
2021/03/24 11:18:55;;;;;;;17.60;11.38;;;13.20;68.30;;;;;;5015447;28;20065;-71
2021/03/24 11:22:02;;;;;;;10.60;8.07;;;13.30;68.20;;;;;;5015243;28;20107;-71
2021/03/24 11:24:46;;;;;;;11.70;7.45;;;13.40;68.10;;;;;;4956708;28;20035;-71
2021/03/24 11:27:37;;;;;;;14.57;9.52;;;13.50;68.10;;;;;;4972888;28;20045;-71
2021/03/24 11:30:21;;;;;;;9.77;6.20;;;13.50;67.80;;;;;;4973424;28;20030;-72
2021/03/24 11:32:49;;;;;;;15.65;10.48;;;13.60;67.80;;;;;;4972879;28;20031;-72
2021/03/24 11:35:22;;;;;;;13.05;9.98;;;13.70;67.50;;;;;;4973246;28;20039;-71
2021/03/24 11:37:54;;;;;;;16.10;11.25;;;13.80;67.20;;;;;;4972646;28;20031;-71
2021/03/24 11:40:36;;;;;;;18.38;11.93;;;13.90;66.80;;;;;;4977958;28;20531;-71
2021/03/24 11:43:26;;;;;;;15.05;9.68;;;14.00;66.50;;;;;;5031536;28;20033;-71
2021/03/24 11:46:14;;;;;;;12.52;8.20;;;14.00;66.60;;;;;;5031927;28;20459;-72
2021/03/24 11:49:10;;;;;;;12.18;8.75;;;14.20;66.50;;;;;;5032918;28;20029;-71
2021/03/24 11:52:12;;;;;;;11.75;7.72;;;14.20;66.10;;;;;;5031334;28;20393;-72
2021/03/24 11:54:41;;;;;;;15.27;10.38;;;14.40;66.10;;;;;;5014298;28;20049;-72
2021/03/24 11:57:29;;;;;;;13.15;8.60;;;14.50;65.80;;;;;;5030574;28;20041;-71
2021/03/24 12:00:00;;;;;;;12.48;8.88;;;14.60;65.60;;;;;;5035645;28;20060;-72
2021/03/24 12:03:03;;;;;;;13.63;9.60;;;14.70;65.20;;;;;;5073099;28;20032;-71
2021/03/24 12:05:36;;;;;;;10.75;7.53;;;14.80;64.90;;;;;;5071710;28;20024;-72
2021/03/24 12:08:30;;;;;;;11.48;7.80;;;14.90;64.80;;;;;;5072804;28;20369;-71
2021/03/24 12:11:20;;;;;;;9.40;6.72;;;15.00;64.40;;;;;;5071684;28;20020;-71
2021/03/24 12:13:46;;;;;;;13.40;9.38;;;15.10;64.50;;;;;;5072991;28;20076;-71
2021/03/24 12:16:15;;;;;;;11.65;8.25;;;15.20;64.00;;;;;;5072809;28;20086;-71
2021/03/24 12:18:45;;;;;;;11.00;7.95;;;15.50;63.60;;;;;;5072822;28;20489;-71
2021/03/24 12:21:20;;;;;;;10.88;7.88;;;15.80;63.20;;;;;;5071783;28;20029;-73
2021/03/24 12:23:48;;;;;;;10.73;8.30;;;16.10;62.40;;;;;;5072866;28;20028;-72
2021/03/24 12:26:26;;;;;;;9.90;7.18;;;16.30;62.20;;;;;;5072861;28;20028;-71
2021/03/24 12:28:55;;;;;;;9.70;7.72;;;16.40;61.90;;;;;;5072936;28;20362;-71
2021/03/24 12:31:23;;;;;;;9.63;7.28;;;16.60;61.50;;;;;;5071477;28;20039;-72
2021/03/24 12:33:56;;;;;;;9.60;6.65;;;16.60;61.20;;;;;;5071573;28;20462;-71
2021/03/24 12:36:25;;;;;;;9.68;7.47;;;16.60;61.30;;;;;;5072897;28;20079;-72
2021/03/24 12:39:33;;;;;;;11.93;7.18;;;16.70;61.20;;;;;;5073249;28;20025;-72
2021/03/24 12:42:30;;;;;;;8.18;5.38;;;16.70;61.20;;;;;;5072901;28;20031;-72
2021/03/24 12:44:57;;;;;;;10.50;6.57;;;16.70;61.30;;;;;;5072182;28;20028;-71
2021/03/24 12:47:34;;;;;;;11.68;8.05;;;16.70;61.30;;;;;;5073004;28;20024;-72
2021/03/24 12:50:09;;;;;;;9.57;6.43;;;16.90;60.80;;;;;;5071306;28;20036;-72
2021/03/24 12:52:59;;;;;;;10.85;5.90;;;17.10;60.70;;;;;;5071212;28;20033;-71
2021/03/24 12:55:25;;;;;;;9.70;6.65;;;17.40;60.20;;;;;;5071078;28;20036;-71
2021/03/24 12:58:16;;;;;;;10.18;7.13;;;17.60;59.80;;;;;;5072566;28;20033;-72
2021/03/24 13:00:54;;;;;;;8.82;5.80;;;17.90;59.10;;;;;;5066685;28;20047;-72
2021/03/24 13:03:45;;;;;;;11.02;7.20;;;18.00;59.00;;;;;;5073143;28;20373;-71
2021/03/24 13:06:36;;;;;;;10.77;7.70;;;18.00;58.70;;;;;;5072492;28;20123;-71
2021/03/24 13:09:16;;;;;;;10.60;6.72;;;18.00;58.40;;;;;;5072555;28;20036;-71
2021/03/24 13:12:01;;;;;;;7.70;5.72;;;17.80;59.00;;;;;;5071187;28;20043;-71
2021/03/24 13:14:51;;;;;;;6.85;5.15;;;17.90;59.10;;;;;;5070993;28;20456;-72
2021/03/24 13:17:44;;;;;;;8.52;6.28;;;18.20;58.50;;;;;;5071978;28;20493;-72
2021/03/24 13:20:16;;;;;;;8.55;5.28;;;18.30;58.00;;;;;;5075186;28;20086;-72
2021/03/24 13:23:11;;;;;;;7.80;5.10;;;18.20;58.30;;;;;;5071698;28;20512;-71
2021/03/24 13:25:47;;;;;;;9.90;6.70;;;18.40;58.20;;;;;;5065017;28;20462;-72
2021/03/24 13:28:25;;;;;;;9.48;7.35;;;18.40;57.60;;;;;;5074225;28;20085;-72
2021/03/24 13:31:19;;;;;;;10.57;7.33;;;18.60;57.30;;;;;;5075500;28;20031;-72
2021/03/24 13:33:57;;;;;;;8.80;6.65;;;18.70;56.90;;;;;;5075754;28;20016;-72
2021/03/24 13:36:28;;;;;;;7.50;5.72;;;18.60;56.90;;;;;;5074523;28;20086;-73
2021/03/24 13:38:59;;;;;;;9.20;6.05;;;18.60;56.70;;;;;;5074607;28;20021;-73
2021/03/24 13:41:26;;;;;;;7.57;5.40;;;18.50;56.90;;;;;;5076285;28;20488;-72
2021/03/24 13:43:58;;;;;;;7.60;5.10;;;18.40;57.10;;;;;;5075717;28;20512;-72
2021/03/24 13:46:36;;;;;;;8.07;4.88;;;18.40;57.20;;;;;;5075674;28;20016;-72
2021/03/24 13:49:14;;;;;;;7.80;6.40;;;18.70;56.70;;;;;;5075513;28;20028;-73